Time;durP1;ratioP1;P1;durP2;ratioP2;P2;SDS_P1;SDS_P2;PMS_P1;PMS_P2;Temp;Humidity;BMP_temperature;BMP_pressure;BME280_temperature;BME280_humidity;BME280_pressure;Samples;Min_cycle;Max_cycle;Signal;HPM_P1;HPM_P2
2022/01/19 00:00:47;;;;;;;2.55;1.20;;;;;;;;;;7386060;19;20010;-72
2022/01/19 00:03:12;;;;;;;3.85;1.33;;;;;;;;;;7384832;19;20018;-74
2022/01/19 00:05:39;;;;;;;1.80;0.93;;;;;;;;;;7384651;19;20468;-74
2022/01/19 00:08:04;;;;;;;4.03;1.05;;;;;;;;;;7384981;19;20010;-72
2022/01/19 00:10:30;;;;;;;3.22;1.23;;;;;;;;;;7384623;19;20016;-74
2022/01/19 00:12:56;;;;;;;2.35;1.10;;;;;;;;;;7382819;19;20039;-72
2022/01/19 00:15:22;;;;;;;1.65;1.13;;;;;;;;;;7384072;19;20069;-74
2022/01/19 00:17:48;;;;;;;2.58;1.10;;;;;;;;;;7383365;19;20123;-74
2022/01/19 00:20:13;;;;;;;4.50;1.00;;;;;;;;;;7382304;19;20049;-74
2022/01/19 00:22:39;;;;;;;2.17;1.05;;;;;;;;;;7384811;19;20021;-72
2022/01/19 00:25:06;;;;;;;1.83;1.02;;;;;;;;;;7386418;19;20042;-72
2022/01/19 00:27:31;;;;;;;2.30;0.95;;;;;;;;;;7383708;19;20082;-74
2022/01/19 00:29:57;;;;;;;3.42;0.95;;;;;;;;;;7381132;19;20011;-74
2022/01/19 00:32:24;;;;;;;3.78;1.10;;;;;;;;;;7384687;19;20022;-72
2022/01/19 00:34:49;;;;;;;2.72;1.05;;;;;;;;;;7382146;19;20034;-74
2022/01/19 00:37:14;;;;;;;2.45;1.30;;;;;;;;;;7384610;19;20389;-74
2022/01/19 00:39:40;;;;;;;3.40;1.00;;;;;;;;;;7383426;19;20010;-74
2022/01/19 00:42:05;;;;;;;3.58;1.13;;;;;;;;;;7385075;19;20014;-75
2022/01/19 00:44:31;;;;;;;1.02;0.80;;;;;;;;;;7384338;19;20015;-72
2022/01/19 00:46:56;;;;;;;3.38;1.40;;;;;;;;;;7384125;19;20020;-71
2022/01/19 00:49:21;;;;;;;3.03;1.13;;;;;;;;;;7383354;19;20125;-72
2022/01/19 00:51:47;;;;;;;4.85;1.40;;;;;;;;;;7384375;19;20023;-74
2022/01/19 00:54:13;;;;;;;1.48;1.08;;;;;;;;;;7383435;19;20002;-74
2022/01/19 00:56:38;;;;;;;3.60;1.20;;;;;;;;;;7382895;19;20338;-74
2022/01/19 00:59:05;;;;;;;1.17;0.77;;;;;;;;;;7380733;19;20007;-74
2022/01/19 01:01:30;;;;;;;1.25;0.85;;;;;;;;;;7383374;19;20002;-71
2022/01/19 01:03:55;;;;;;;2.85;0.98;;;;;;;;;;7383912;19;20014;-72
2022/01/19 01:06:21;;;;;;;1.83;0.80;;;;;;;;;;7382144;19;20026;-72
2022/01/19 01:08:46;;;;;;;1.48;0.75;;;;;;;;;;7382033;19;20018;-74
2022/01/19 01:11:12;;;;;;;8.50;1.10;;;;;;;;;;7382795;19;20010;-74
2022/01/19 01:16:57;;;;;;;4.63;1.10;;;;;;;;;;7383851;19;20014;-72
2022/01/19 01:19:10;;;;;;;2.08;0.82;;;;;;;;;;7381277;19;20366;-74
2022/01/19 01:21:36;;;;;;;3.78;1.08;;;;;;;;;;7383154;19;20026;-74
2022/01/19 01:24:03;;;;;;;2.03;1.23;;;;;;;;;;7383387;19;20356;-74
2022/01/19 01:26:28;;;;;;;3.25;0.85;;;;;;;;;;7390102;19;20013;-72
2022/01/19 01:28:54;;;;;;;5.82;1.23;;;;;;;;;;7386895;19;20014;-74
2022/01/19 01:31:19;;;;;;;2.13;0.90;;;;;;;;;;7389729;19;20002;-74
2022/01/19 01:33:45;;;;;;;1.75;1.00;;;;;;;;;;7388741;19;20487;-74
2022/01/19 01:36:10;;;;;;;2.08;1.00;;;;;;;;;;7391210;19;20020;-74
2022/01/19 01:38:39;;;;;;;4.55;1.42;;;;;;;;;;7388058;19;20010;-74
2022/01/19 01:41:06;;;;;;;2.50;0.73;;;;;;;;;;7391746;19;20021;-74
2022/01/19 01:43:31;;;;;;;3.90;1.30;;;;;;;;;;7385388;19;20437;-74
2022/01/19 01:46:03;;;;;;;1.02;0.80;;;;;;;;;;7391017;19;20153;-74
2022/01/19 01:48:28;;;;;;;4.72;1.17;;;;;;;;;;7386525;19;20014;-74
2022/01/19 01:53:38;;;;;;;2.13;1.25;;;;;;;;;;7385432;19;20449;-72
2022/01/19 01:56:10;;;;;;;0.85;0.65;;;;;;;;;;7389270;19;20007;-71
2022/01/19 01:58:38;;;;;;;1.23;0.82;;;;;;;;;;7387287;19;20373;-74
2022/01/19 02:01:07;;;;;;;1.52;1.17;;;;;;;;;;7390134;19;20010;-74
2022/01/19 02:03:38;;;;;;;1.00;0.77;;;;;;;;;;7390614;19;20010;-71
2022/01/19 02:08:54;;;;;;;1.73;0.80;;;;;;;;;;7387358;19;20448;-73
2022/01/19 02:15:48;;;;;;;3.78;1.33;;;;;;;;;;7390043;19;20007;-72
2022/01/19 02:25:48;;;;;;;1.10;1.00;;;;;;;;;;7389453;19;20028;-71
2022/01/19 02:41:48;;;;;;;1.30;0.80;;;;;;;;;;7390206;19;20090;-74
2022/01/19 02:44:27;;;;;;;1.67;1.15;;;;;;;;;;7386911;19;20425;-71
2022/01/19 02:49:36;;;;;;;0.68;0.52;;;;;;;;;;7384995;19;20035;-74
2022/01/19 02:52:02;;;;;;;1.30;0.85;;;;;;;;;;7389003;19;20006;-74
2022/01/19 02:54:29;;;;;;;1.35;0.77;;;;;;;;;;7386034;19;20490;-74
2022/01/19 02:56:58;;;;;;;2.05;0.77;;;;;;;;;;7388386;19;20096;-74
2022/01/19 02:59:32;;;;;;;2.70;0.63;;;;;;;;;;7385306;19;20014;-74
2022/01/19 03:10:09;;;;;;;2.30;0.85;;;;;;;;;;7382843;19;20622;-73
2022/01/19 03:12:34;;;;;;;2.97;1.17;;;;;;;;;;7387417;19;20007;-71
2022/01/19 03:15:00;;;;;;;4.05;1.00;;;;;;;;;;7384747;19;20044;-74
2022/01/19 03:17:25;;;;;;;3.92;1.30;;;;;;;;;;7389123;19;20010;-74
2022/01/19 03:19:51;;;;;;;6.13;1.60;;;;;;;;;;7382826;19;20023;-74
2022/01/19 03:22:19;;;;;;;3.65;1.00;;;;;;;;;;7385915;19;20035;-74
2022/01/19 03:24:50;;;;;;;7.20;1.65;;;;;;;;;;7386013;19;20010;-74
2022/01/19 03:27:16;;;;;;;1.88;1.02;;;;;;;;;;7387257;19;20021;-74
2022/01/19 03:29:41;;;;;;;1.20;0.68;;;;;;;;;;7381482;19;19999;-74
2022/01/19 03:32:07;;;;;;;7.45;1.85;;;;;;;;;;7388778;19;20333;-73
2022/01/19 03:34:33;;;;;;;6.85;2.10;;;;;;;;;;7385031;19;20603;-74
2022/01/19 03:36:58;;;;;;;7.00;2.40;;;;;;;;;;7387831;19;20466;-74
2022/01/19 03:39:23;;;;;;;3.67;1.38;;;;;;;;;;7384086;19;20257;-73
2022/01/19 03:41:49;;;;;;;4.40;1.85;;;;;;;;;;7383611;19;20031;-74
2022/01/19 03:44:14;;;;;;;3.45;1.48;;;;;;;;;;7386766;19;20006;-74
2022/01/19 03:46:54;;;;;;;2.00;1.13;;;;;;;;;;7387655;19;20014;-73
2022/01/19 03:49:24;;;;;;;1.27;0.82;;;;;;;;;;7383084;19;20018;-74
2022/01/19 03:51:50;;;;;;;5.63;1.02;;;;;;;;;;7387006;19;20015;-74
2022/01/19 03:54:15;;;;;;;1.10;0.80;;;;;;;;;;7385576;19;20497;-74
2022/01/19 03:56:41;;;;;;;1.85;0.82;;;;;;;;;;7385747;19;20010;-73
2022/01/19 03:59:06;;;;;;;3.40;1.33;;;;;;;;;;7383741;19;20396;-74
2022/01/19 04:01:31;;;;;;;2.15;0.88;;;;;;;;;;7382024;19;20003;-74
2022/01/19 04:06:26;;;;;;;1.98;0.90;;;;;;;;;;7384925;19;20031;-74
2022/01/19 04:08:52;;;;;;;1.60;1.50;;;;;;;;;;7382642;19;20014;-74
2022/01/19 04:11:20;;;;;;;4.10;1.00;;;;;;;;;;7384014;19;20030;-74
2022/01/19 04:14:21;;;;;;;2.83;1.00;;;;;;;;;;7382696;19;20416;-74
2022/01/19 04:16:43;;;;;;;1.73;0.70;;;;;;;;;;7382649;19;20079;-74
2022/01/19 04:21:33;;;;;;;3.38;1.38;;;;;;;;;;7385179;19;20017;-74
2022/01/19 04:23:59;;;;;;;3.60;1.25;;;;;;;;;;7382813;19;20546;-74
2022/01/19 04:26:25;;;;;;;1.10;0.90;;;;;;;;;;7384252;19;20104;-73
2022/01/19 04:28:50;;;;;;;1.30;0.90;;;;;;;;;;7382398;19;20090;-74
2022/01/19 04:31:15;;;;;;;1.95;0.75;;;;;;;;;;7379989;19;20123;-74
2022/01/19 04:33:43;;;;;;;3.17;0.85;;;;;;;;;;7382158;19;20003;-73
2022/01/19 04:36:33;;;;;;;1.58;0.90;;;;;;;;;;7381029;19;20441;-74
2022/01/19 04:47:59;;;;;;;2.08;0.90;;;;;;;;;;7383320;19;20027;-74
2022/01/19 05:06:23;;;;;;;2.42;0.98;;;;;;;;;;7391228;19;20022;-74
2022/01/19 05:09:00;;;;;;;3.40;1.02;;;;;;;;;;7389877;19;20007;-74
2022/01/19 05:14:09;;;;;;;2.35;1.02;;;;;;;;;;7387025;19;20144;-74
2022/01/19 05:16:35;;;;;;;3.40;1.50;;;;;;;;;;7390812;19;20039;-74
2022/01/19 05:19:00;;;;;;;2.05;1.15;;;;;;;;;;7387264;19;20456;-75
2022/01/19 05:21:25;;;;;;;2.03;1.30;;;;;;;;;;7389811;19;20085;-73
2022/01/19 05:23:51;;;;;;;2.80;1.23;;;;;;;;;;7392211;19;20038;-73
2022/01/19 05:26:16;;;;;;;4.22;1.40;;;;;;;;;;7388392;19;20055;-73
2022/01/19 05:28:44;;;;;;;3.67;1.98;;;;;;;;;;7384593;19;20021;-73
2022/01/19 05:31:10;;;;;;;2.58;1.05;;;;;;;;;;7384259;19;20346;-73
2022/01/19 05:33:36;;;;;;;1.92;1.20;;;;;;;;;;7378112;19;20011;-73
2022/01/19 05:36:02;;;;;;;2.95;1.38;;;;;;;;;;7351609;19;20010;-73
2022/01/19 05:38:27;;;;;;;3.85;1.90;;;;;;;;;;7385790;19;20010;-73
2022/01/19 05:40:53;;;;;;;5.57;1.75;;;;;;;;;;7385041;19;20015;-72
2022/01/19 05:43:18;;;;;;;1.75;1.42;;;;;;;;;;7387310;19;20022;-73
2022/01/19 05:45:43;;;;;;;5.28;1.52;;;;;;;;;;7385833;19;20075;-73
2022/01/19 05:48:09;;;;;;;8.75;2.25;;;;;;;;;;7383783;19;20006;-73
2022/01/19 05:50:35;;;;;;;5.93;1.52;;;;;;;;;;7382568;19;20010;-73
2022/01/19 05:53:00;;;;;;;7.97;2.25;;;;;;;;;;7384886;19;20010;-72
2022/01/19 05:55:26;;;;;;;6.88;1.92;;;;;;;;;;7384464;19;20341;-73
2022/01/19 05:57:51;;;;;;;4.22;1.83;;;;;;;;;;7383869;19;20330;-73
2022/01/19 06:00:17;;;;;;;4.15;1.50;;;;;;;;;;7380858;19;20018;-72
2022/01/19 06:02:42;;;;;;;2.17;1.10;;;;;;;;;;7383226;19;20078;-73
2022/01/19 06:05:08;;;;;;;2.72;1.42;;;;;;;;;;7384048;19;20007;-72
2022/01/19 06:07:42;;;;;;;6.00;1.98;;;;;;;;;;7383620;19;20078;-73
2022/01/19 06:10:10;;;;;;;4.13;1.85;;;;;;;;;;7380827;19;20062;-73
2022/01/19 06:12:36;;;;;;;2.70;1.45;;;;;;;;;;7384762;19;20017;-72
2022/01/19 06:15:02;;;;;;;2.92;1.73;;;;;;;;;;7382553;19;20078;-73
2022/01/19 06:17:27;;;;;;;5.47;1.60;;;;;;;;;;7385462;19;20020;-73
2022/01/19 06:19:53;;;;;;;6.80;2.28;;;;;;;;;;7382149;19;20404;-73
2022/01/19 06:22:20;;;;;;;3.38;1.98;;;;;;;;;;7381232;19;20002;-73
2022/01/19 06:24:45;;;;;;;3.33;1.70;;;;;;;;;;7381559;19;20121;-73
2022/01/19 06:27:11;;;;;;;3.55;1.60;;;;;;;;;;7377859;19;20027;-73
2022/01/19 06:29:37;;;;;;;7.53;2.33;;;;;;;;;;7377392;19;20433;-73
2022/01/19 06:32:02;;;;;;;10.02;2.72;;;;;;;;;;7381475;19;20011;-73
2022/01/19 06:34:28;;;;;;;7.18;2.50;;;;;;;;;;7383727;19;20448;-73
2022/01/19 06:36:53;;;;;;;7.68;2.35;;;;;;;;;;7382757;19;20032;-73
2022/01/19 06:39:20;;;;;;;5.95;2.15;;;;;;;;;;7382746;19;20015;-73
2022/01/19 06:41:46;;;;;;;4.32;1.85;;;;;;;;;;7382708;19;20366;-75
2022/01/19 06:44:13;;;;;;;6.43;2.22;;;;;;;;;;7383124;19;20006;-74
2022/01/19 06:46:38;;;;;;;5.68;2.15;;;;;;;;;;7376701;19;20442;-74
2022/01/19 06:49:03;;;;;;;2.95;1.15;;;;;;;;;;7382501;19;20007;-73
2022/01/19 06:51:29;;;;;;;5.43;2.17;;;;;;;;;;7385876;19;20011;-74
2022/01/19 06:53:54;;;;;;;4.85;2.08;;;;;;;;;;7386536;19;20019;-72
2022/01/19 06:56:20;;;;;;;6.10;2.08;;;;;;;;;;7385891;19;20443;-73
2022/01/19 06:58:45;;;;;;;2.78;1.77;;;;;;;;;;7384921;19;20014;-73
2022/01/19 07:01:10;;;;;;;3.60;1.77;;;;;;;;;;7384300;19;20006;-73
2022/01/19 07:03:36;;;;;;;3.75;2.30;;;;;;;;;;7383824;19;20002;-73
2022/01/19 07:06:01;;;;;;;4.95;2.60;;;;;;;;;;7383044;19;20349;-73
2022/01/19 07:08:27;;;;;;;4.85;2.38;;;;;;;;;;7381767;19;20123;-72
2022/01/19 07:10:53;;;;;;;5.00;2.85;;;;;;;;;;7384776;19;20038;-73
2022/01/19 07:13:19;;;;;;;6.97;2.85;;;;;;;;;;7384300;19;20031;-73
2022/01/19 07:15:45;;;;;;;7.20;3.05;;;;;;;;;;7383129;19;20024;-73
2022/01/19 07:18:11;;;;;;;5.72;3.00;;;;;;;;;;7384422;19;22239;-72
2022/01/19 07:20:36;;;;;;;12.52;3.60;;;;;;;;;;7382905;19;20022;-72
2022/01/19 07:23:02;;;;;;;6.88;2.70;;;;;;;;;;7382900;19;20590;-71
2022/01/19 07:25:28;;;;;;;6.75;3.30;;;;;;;;;;7382238;19;20369;-72
2022/01/19 07:27:53;;;;;;;10.77;3.00;;;;;;;;;;7384338;19;20010;-71
2022/01/19 07:30:18;;;;;;;7.63;3.60;;;;;;;;;;7379079;19;20009;-71
2022/01/19 07:32:44;;;;;;;6.72;3.22;;;;;;;;;;7382800;19;20138;-70
2022/01/19 07:35:10;;;;;;;6.10;3.08;;;;;;;;;;7381635;19;20005;-71
2022/01/19 07:37:35;;;;;;;7.32;3.42;;;;;;;;;;7383558;19;20010;-71
2022/01/19 07:40:01;;;;;;;5.15;3.38;;;;;;;;;;7383739;19;20003;-71
2022/01/19 07:42:27;;;;;;;5.65;3.05;;;;;;;;;;7384926;19;21275;-71
2022/01/19 07:44:53;;;;;;;7.97;3.38;;;;;;;;;;7381843;19;20003;-71
2022/01/19 07:47:19;;;;;;;6.70;3.53;;;;;;;;;;7385038;19;20007;-71
2022/01/19 07:49:45;;;;;;;7.03;3.28;;;;;;;;;;7383171;19;20422;-71
2022/01/19 07:52:10;;;;;;;4.97;3.28;;;;;;;;;;7383729;19;20390;-72
2022/01/19 07:54:35;;;;;;;5.35;3.00;;;;;;;;;;7384159;19;20006;-72
2022/01/19 07:57:01;;;;;;;5.75;3.45;;;;;;;;;;7384736;19;20032;-71
2022/01/19 07:59:26;;;;;;;5.07;3.17;;;;;;;;;;7383371;19;20002;-71
2022/01/19 08:01:53;;;;;;;6.57;4.20;;;;;;;;;;7382236;19;20017;-71
2022/01/19 08:04:19;;;;;;;7.32;3.65;;;;;;;;;;7384510;19;20010;-70
2022/01/19 08:06:44;;;;;;;7.65;3.78;;;;;;;;;;7381856;19;20025;-72
2022/01/19 08:09:10;;;;;;;8.18;5.40;;;;;;;;;;7381511;19;20102;-71
2022/01/19 08:11:36;;;;;;;8.65;5.07;;;;;;;;;;7383346;19;20464;-71
2022/01/19 08:14:01;;;;;;;7.07;3.92;;;;;;;;;;7385124;19;20034;-71
2022/01/19 08:16:26;;;;;;;8.50;5.20;;;;;;;;;;7383060;19;20040;-72
2022/01/19 08:18:51;;;;;;;8.15;4.15;;;;;;;;;;7382530;19;20014;-71
2022/01/19 08:21:17;;;;;;;7.93;4.68;;;;;;;;;;7382144;19;20014;-71
2022/01/19 08:23:42;;;;;;;8.27;4.95;;;;;;;;;;7383727;19;20508;-71
2022/01/19 08:26:07;;;;;;;9.10;5.13;;;;;;;;;;7381256;19;20066;-71
2022/01/19 08:28:33;;;;;;;7.22;4.28;;;;;;;;;;7381979;19;20013;-72
2022/01/19 08:30:59;;;;;;;9.18;4.60;;;;;;;;;;7381684;19;20022;-71
2022/01/19 08:33:24;;;;;;;8.80;5.05;;;;;;;;;;7378882;19;20006;-72
2022/01/19 08:35:51;;;;;;;8.65;4.97;;;;;;;;;;7389132;19;20014;-71
2022/01/19 08:38:17;;;;;;;14.20;6.50;;;;;;;;;;7388014;19;20014;-71
2022/01/19 08:40:42;;;;;;;6.90;4.50;;;;;;;;;;7392540;19;20075;-72
2022/01/19 08:43:08;;;;;;;9.80;5.18;;;;;;;;;;7390653;19;20072;-72
2022/01/19 08:45:35;;;;;;;8.40;5.00;;;;;;;;;;7390632;19;20409;-72
2022/01/19 08:48:00;;;;;;;7.15;4.78;;;;;;;;;;7386816;19;20125;-70
2022/01/19 08:50:26;;;;;;;10.35;5.75;;;;;;;;;;7381251;19;20036;-71
2022/01/19 08:52:51;;;;;;;10.55;5.82;;;;;;;;;;7387500;19;20015;-71
2022/01/19 08:55:17;;;;;;;9.63;5.25;;;;;;;;;;7384466;19;20010;-72
2022/01/19 08:57:44;;;;;;;9.48;5.75;;;;;;;;;;7388404;19;20010;-72
2022/01/19 09:00:16;;;;;;;15.32;5.95;;;;;;;;;;7382842;19;20010;-71
2022/01/19 09:02:41;;;;;;;12.55;4.93;;;;;;;;;;7390041;19;20088;-71
2022/01/19 09:05:08;;;;;;;8.48;5.13;;;;;;;;;;7390606;19;20010;-72
2022/01/19 09:07:33;;;;;;;13.93;6.10;;;;;;;;;;7387158;19;20161;-73
2022/01/19 09:09:59;;;;;;;11.80;5.88;;;;;;;;;;7383779;19;20034;-72
2022/01/19 09:12:24;;;;;;;8.80;6.10;;;;;;;;;;7390388;19;20018;-72
2022/01/19 09:14:50;;;;;;;10.48;6.45;;;;;;;;;;7384008;19;20011;-72
2022/01/19 09:17:15;;;;;;;9.85;6.43;;;;;;;;;;7387923;19;20018;-72
2022/01/19 09:19:41;;;;;;;12.13;6.72;;;;;;;;;;7387985;19;20018;-73
2022/01/19 09:22:09;;;;;;;16.38;7.75;;;;;;;;;;7390110;19;20010;-72
2022/01/19 09:24:35;;;;;;;13.27;8.13;;;;;;;;;;7388717;19;20093;-71
2022/01/19 09:27:01;;;;;;;11.20;7.20;;;;;;;;;;7386451;19;20031;-72
2022/01/19 09:29:26;;;;;;;13.63;8.00;;;;;;;;;;7386363;19;20006;-72
2022/01/19 09:31:54;;;;;;;13.95;7.88;;;;;;;;;;7383506;19;20010;-72
2022/01/19 09:34:21;;;;;;;11.70;7.88;;;;;;;;;;7387899;19;20003;-71
2022/01/19 09:36:46;;;;;;;12.38;7.82;;;;;;;;;;7385015;19;20425;-73
2022/01/19 09:39:24;;;;;;;14.93;8.60;;;;;;;;;;7386105;19;20150;-72
2022/01/19 09:41:49;;;;;;;13.88;8.40;;;;;;;;;;7386756;19;20010;-71
2022/01/19 09:44:21;;;;;;;14.73;8.48;;;;;;;;;;7387676;19;20403;-73
2022/01/19 09:46:47;;;;;;;14.60;8.70;;;;;;;;;;7387374;19;20580;-71
2022/01/19 09:49:13;;;;;;;11.93;8.02;;;;;;;;;;7384103;19;20006;-72
2022/01/19 09:51:43;;;;;;;16.17;8.32;;;;;;;;;;7385742;19;20014;-70
2022/01/19 09:54:12;;;;;;;13.40;8.43;;;;;;;;;;7382331;19;20062;-71
2022/01/19 09:56:37;;;;;;;13.48;8.52;;;;;;;;;;7383489;19;20022;-72
2022/01/19 09:59:03;;;;;;;14.07;8.02;;;;;;;;;;7374914;19;20010;-73
2022/01/19 10:01:28;;;;;;;12.68;7.22;;;;;;;;;;7386610;19;20014;-73
2022/01/19 10:03:53;;;;;;;13.68;7.25;;;;;;;;;;7386494;19;20061;-74
2022/01/19 10:06:22;;;;;;;12.43;7.82;;;;;;;;;;7387412;19;20010;-73
2022/01/19 10:08:56;;;;;;;14.82;8.43;;;;;;;;;;7379772;19;20102;-75
2022/01/19 10:17:01;;;;;;;13.48;8.55;;;;;;;;;;7390752;19;20035;-73
2022/01/19 10:19:44;;;;;;;12.98;8.02;;;;;;;;;;7381395;19;20003;-73
2022/01/19 10:22:15;;;;;;;13.93;7.93;;;;;;;;;;7387145;19;20006;-74
2022/01/19 10:24:57;;;;;;;14.82;7.93;;;;;;;;;;7388683;19;20535;-74
2022/01/19 10:27:32;;;;;;;13.10;7.35;;;;;;;;;;7382749;19;20019;-73
2022/01/19 10:30:03;;;;;;;12.75;8.18;;;;;;;;;;7383511;19;20017;-74
2022/01/19 10:32:31;;;;;;;14.32;7.47;;;;;;;;;;7387481;19;20002;-73
2022/01/19 10:34:57;;;;;;;12.65;7.10;;;;;;;;;;7387097;19;20010;-73
2022/01/19 10:37:28;;;;;;;12.25;7.78;;;;;;;;;;7383127;19;20376;-72
2022/01/19 10:39:57;;;;;;;14.30;8.05;;;;;;;;;;7382873;19;20018;-73
2022/01/19 10:42:25;;;;;;;14.07;7.90;;;;;;;;;;7384080;19;20006;-71
2022/01/19 10:44:56;;;;;;;13.57;8.20;;;;;;;;;;7379796;19;20018;-70
2022/01/19 10:47:43;;;;;;;11.80;7.05;;;;;;;;;;7386378;19;20522;-71
2022/01/19 10:50:11;;;;;;;12.63;6.28;;;;;;;;;;7382086;19;20019;-71
2022/01/19 10:52:40;;;;;;;13.25;7.97;;;;;;;;;;7384778;19;20031;-71
2022/01/19 10:55:28;;;;;;;12.52;7.80;;;;;;;;;;7383986;19;20074;-71
2022/01/19 10:57:55;;;;;;;14.07;7.35;;;;;;;;;;7380520;19;20018;-72
2022/01/19 11:00:33;;;;;;;9.52;6.25;;;;;;;;;;7377099;19;20441;-72
2022/01/19 11:03:18;;;;;;;10.82;6.68;;;;;;;;;;7383569;19;20034;-73
2022/01/19 11:05:43;;;;;;;10.93;6.72;;;;;;;;;;7385708;19;20006;-73
2022/01/19 11:08:09;;;;;;;11.77;7.15;;;;;;;;;;7382361;19;20010;-72
2022/01/19 11:10:34;;;;;;;12.70;7.70;;;;;;;;;;7385193;19;20018;-73
2022/01/19 11:13:00;;;;;;;13.07;7.30;;;;;;;;;;7387086;19;20346;-74
2022/01/19 11:15:25;;;;;;;11.23;6.95;;;;;;;;;;7384094;19;20547;-75
2022/01/19 11:17:50;;;;;;;13.02;7.53;;;;;;;;;;7383055;19;20015;-73
2022/01/19 11:20:23;;;;;;;11.75;7.13;;;;;;;;;;7380234;19;20039;-73
2022/01/19 11:23:18;;;;;;;13.68;7.78;;;;;;;;;;7380981;19;20015;-75
2022/01/19 11:26:08;;;;;;;13.73;6.93;;;;;;;;;;7383531;19;20489;-74
2022/01/19 11:28:40;;;;;;;10.10;6.55;;;;;;;;;;7377163;19;20147;-74
2022/01/19 11:31:25;;;;;;;14.15;8.32;;;;;;;;;;7378623;19;20021;-75
2022/01/19 11:33:53;;;;;;;12.25;6.80;;;;;;;;;;7382777;19;20353;-74
2022/01/19 11:36:23;;;;;;;17.05;8.10;;;;;;;;;;7385101;19;20014;-76
2022/01/19 11:38:50;;;;;;;13.95;8.23;;;;;;;;;;7382177;19;20018;-74
2022/01/19 11:41:15;;;;;;;14.02;8.35;;;;;;;;;;7383241;19;20449;-74
2022/01/19 11:44:30;;;;;;;12.13;6.85;;;;;;;;;;7381294;19;20453;-74
2022/01/19 11:46:57;;;;;;;13.65;8.10;;;;;;;;;;7379003;19;20483;-74
2022/01/19 11:49:47;;;;;;;14.15;7.47;;;;;;;;;;7380783;19;20026;-74
2022/01/19 11:52:15;;;;;;;13.43;7.85;;;;;;;;;;7383396;19;20021;-74
2022/01/19 11:54:41;;;;;;;12.77;8.18;;;;;;;;;;7376903;19;20045;-75
2022/01/19 11:57:12;;;;;;;14.18;7.95;;;;;;;;;;7382874;19;20014;-75
2022/01/19 11:59:44;;;;;;;15.13;8.00;;;;;;;;;;7379849;19;20006;-77
2022/01/19 12:02:21;;;;;;;13.70;7.07;;;;;;;;;;7383712;19;20007;-79
2022/01/19 12:04:58;;;;;;;12.73;7.18;;;;;;;;;;7383961;19;20014;-76
2022/01/19 12:07:38;;;;;;;15.25;7.75;;;;;;;;;;7386151;19;20013;-76
2022/01/19 12:10:07;;;;;;;10.95;7.15;;;;;;;;;;7377237;19;20081;-76
2022/01/19 12:12:38;;;;;;;12.02;6.90;;;;;;;;;;7382883;19;20400;-76
2022/01/19 12:15:07;;;;;;;13.32;7.95;;;;;;;;;;7376984;19;20006;-75
2022/01/19 12:17:53;;;;;;;12.90;7.25;;;;;;;;;;7383517;19;20021;-76
2022/01/19 12:20:46;;;;;;;13.93;7.70;;;;;;;;;;7381472;19;20003;-75
2022/01/19 12:23:34;;;;;;;11.70;7.28;;;;;;;;;;7385369;19;20014;-76
2022/01/19 12:26:01;;;;;;;12.27;7.50;;;;;;;;;;7384256;19;20018;-74
2022/01/19 12:28:41;;;;;;;10.27;6.32;;;;;;;;;;7380660;19;20026;-76
2022/01/19 12:31:25;;;;;;;10.95;7.10;;;;;;;;;;7380919;19;20003;-75
2022/01/19 12:34:08;;;;;;;13.00;6.78;;;;;;;;;;7381061;19;20014;-76
2022/01/19 12:36:44;;;;;;;13.93;7.60;;;;;;;;;;7385130;19;20066;-75
2022/01/19 12:39:24;;;;;;;11.43;7.57;;;;;;;;;;7381807;19;20105;-75
2022/01/19 12:42:06;;;;;;;10.57;6.70;;;;;;;;;;7383372;19;20118;-76
2022/01/19 12:44:34;;;;;;;12.02;7.25;;;;;;;;;;7383098;19;20437;-76
2022/01/19 12:47:00;;;;;;;11.02;6.82;;;;;;;;;;7382293;19;20027;-76
2022/01/19 12:49:30;;;;;;;11.85;7.45;;;;;;;;;;7379838;19;20011;-78
2022/01/19 12:51:56;;;;;;;16.88;7.90;;;;;;;;;;7384991;19;20023;-78
2022/01/19 12:54:27;;;;;;;11.20;7.35;;;;;;;;;;7379970;19;20073;-76
2022/01/19 12:57:02;;;;;;;13.50;7.50;;;;;;;;;;7382689;19;20011;-77
2022/01/19 12:59:27;;;;;;;14.98;8.38;;;;;;;;;;7381224;19;20010;-75
2022/01/19 13:01:53;;;;;;;16.55;8.35;;;;;;;;;;7383140;19;20096;-77
2022/01/19 13:04:27;;;;;;;14.00;8.02;;;;;;;;;;7382706;19;20310;-77
2022/01/19 13:06:55;;;;;;;12.73;7.47;;;;;;;;;;7377945;19;20585;-75
2022/01/19 13:09:28;;;;;;;13.40;7.80;;;;;;;;;;7375747;19;20014;-73
2022/01/19 13:11:55;;;;;;;10.52;7.15;;;;;;;;;;7377931;19;20003;-73
2022/01/19 13:14:23;;;;;;;14.55;7.25;;;;;;;;;;7377300;19;20086;-73
2022/01/19 13:16:52;;;;;;;11.85;6.93;;;;;;;;;;7378039;19;20436;-74
2022/01/19 13:19:19;;;;;;;10.30;6.15;;;;;;;;;;7379797;19;20028;-77
2022/01/19 13:21:49;;;;;;;9.93;6.10;;;;;;;;;;7385445;19;20107;-77
2022/01/19 13:24:26;;;;;;;11.43;6.22;;;;;;;;;;7388357;19;20006;-76
2022/01/19 13:27:00;;;;;;;8.73;5.82;;;;;;;;;;7392056;19;20007;-79
2022/01/19 13:29:42;;;;;;;11.20;5.97;;;;;;;;;;7385604;19;20027;-76
2022/01/19 13:32:12;;;;;;;10.70;6.30;;;;;;;;;;7389635;19;20010;-74
2022/01/19 13:34:56;;;;;;;9.00;5.95;;;;;;;;;;7386499;19;20018;-76
2022/01/19 13:37:33;;;;;;;8.98;6.28;;;;;;;;;;7392051;19;20047;-77
2022/01/19 13:40:00;;;;;;;10.70;5.78;;;;;;;;;;7381626;19;20038;-77
2022/01/19 13:42:49;;;;;;;11.27;6.43;;;;;;;;;;7390764;19;20023;-76
2022/01/19 13:45:47;;;;;;;15.27;6.50;;;;;;;;;;7389674;19;20035;-77
2022/01/19 13:51:02;;;;;;;13.20;6.47;;;;;;;;;;7388262;19;20302;-76
2022/01/19 13:53:34;;;;;;;14.38;6.18;;;;;;;;;;7387621;19;20078;-76
2022/01/19 13:56:02;;;;;;;10.40;6.57;;;;;;;;;;7383607;19;20006;-76
2022/01/19 13:58:37;;;;;;;10.88;5.78;;;;;;;;;;7387854;19;20040;-76
2022/01/19 14:01:11;;;;;;;11.40;6.88;;;;;;;;;;7385139;19;20010;-76
2022/01/19 14:04:10;;;;;;;13.73;6.22;;;;;;;;;;7387694;19;20014;-75
2022/01/19 14:06:36;;;;;;;11.35;6.55;;;;;;;;;;7382978;19;20070;-74
2022/01/19 14:09:06;;;;;;;9.52;5.40;;;;;;;;;;7381985;19;20027;-75
2022/01/19 14:11:32;;;;;;;11.98;6.68;;;;;;;;;;7385428;19;20010;-76
2022/01/19 14:14:09;;;;;;;12.13;6.80;;;;;;;;;;7387708;19;20014;-76
2022/01/19 14:16:38;;;;;;;8.30;5.35;;;;;;;;;;7381037;19;20708;-75
2022/01/19 14:19:24;;;;;;;9.65;5.38;;;;;;;;;;7373022;19;20014;-76
2022/01/19 14:22:10;;;;;;;8.40;5.47;;;;;;;;;;7374965;19;20017;-78
2022/01/19 14:24:41;;;;;;;;;;;;;;;;;;7386591;19;20015;-73
2022/01/19 14:27:11;;;;;;;13.73;5.60;;;;;;;;;;7388125;19;19918;-74
2022/01/19 14:29:36;;;;;;;8.77;5.25;;;;;;;;;;7374633;19;20082;-75
2022/01/19 14:32:01;;;;;;;11.38;5.90;;;;;;;;;;7377214;19;20467;-76
2022/01/19 14:34:42;;;;;;;13.18;7.40;;;;;;;;;;7385278;19;20026;-73
2022/01/19 14:37:08;;;;;;;19.00;7.55;;;;;;;;;;7382923;19;20007;-73
2022/01/19 14:39:45;;;;;;;16.52;7.93;;;;;;;;;;7383324;19;20016;-71
2022/01/19 14:42:10;;;;;;;15.07;7.25;;;;;;;;;;7387201;19;20010;-73
2022/01/19 14:44:41;;;;;;;13.90;6.55;;;;;;;;;;7379031;19;20021;-73
2022/01/19 14:47:16;;;;;;;8.60;4.65;;;;;;;;;;7382471;19;20031;-73
2022/01/19 14:49:41;;;;;;;9.05;5.53;;;;;;;;;;7386463;19;20006;-72
2022/01/19 14:52:07;;;;;;;12.38;6.13;;;;;;;;;;7388171;19;20017;-73
2022/01/19 14:54:33;;;;;;;7.95;5.10;;;;;;;;;;7385307;19;20034;-75
2022/01/19 14:56:58;;;;;;;10.07;5.28;;;;;;;;;;7384425;19;20093;-73
2022/01/19 14:59:23;;;;;;;8.63;4.70;;;;;;;;;;7383737;19;20509;-73
2022/01/19 15:01:56;;;;;;;8.50;3.78;;;;;;;;;;7386529;19;20006;-73
2022/01/19 15:04:22;;;;;;;10.13;5.13;;;;;;;;;;7388272;19;20377;-72
2022/01/19 15:06:48;;;;;;;9.77;5.60;;;;;;;;;;7382969;19;20017;-72
2022/01/19 15:09:14;;;;;;;8.85;4.60;;;;;;;;;;7383704;19;20010;-73
2022/01/19 15:11:41;;;;;;;11.30;5.40;;;;;;;;;;7385467;19;20086;-74
2022/01/19 15:14:07;;;;;;;8.40;5.80;;;;;;;;;;7385210;19;20010;-72
2022/01/19 15:16:32;;;;;;;6.40;4.57;;;;;;;;;;7385684;19;20010;-74
2022/01/19 15:18:58;;;;;;;9.02;5.20;;;;;;;;;;7384621;19;20018;-71
2022/01/19 15:21:23;;;;;;;8.88;4.85;;;;;;;;;;7383600;19;20030;-75
2022/01/19 15:23:53;;;;;;;8.20;5.15;;;;;;;;;;7385677;19;20008;-74
2022/01/19 15:26:19;;;;;;;8.90;4.97;;;;;;;;;;7384132;19;20039;-74
2022/01/19 15:28:45;;;;;;;17.70;9.63;;;;;;;;;;7383457;19;20006;-74
2022/01/19 15:31:11;;;;;;;20.55;9.18;;;;;;;;;;7386227;19;20014;-73
2022/01/19 15:33:37;;;;;;;9.20;5.53;;;;;;;;;;7384848;19;20015;-74
2022/01/19 15:36:04;;;;;;;10.02;5.40;;;;;;;;;;7385821;19;20014;-74
2022/01/19 15:38:30;;;;;;;9.82;4.65;;;;;;;;;;7383866;19;20015;-73
2022/01/19 15:40:55;;;;;;;7.30;4.47;;;;;;;;;;7381289;19;20091;-73
2022/01/19 15:43:20;;;;;;;7.00;4.03;;;;;;;;;;7384055;19;20342;-72
2022/01/19 15:45:48;;;;;;;8.55;4.72;;;;;;;;;;7385760;19;20014;-75
2022/01/19 15:48:16;;;;;;;9.43;4.97;;;;;;;;;;7385597;19;20345;-74
2022/01/19 15:50:53;;;;;;;10.23;5.07;;;;;;;;;;7383443;19;20015;-75
2022/01/19 15:53:20;;;;;;;8.30;4.82;;;;;;;;;;7385258;19;20054;-74
2022/01/19 15:55:48;;;;;;;7.90;4.43;;;;;;;;;;7383648;19;20041;-72
2022/01/19 15:58:14;;;;;;;9.98;5.20;;;;;;;;;;7384919;19;20003;-73
2022/01/19 16:00:40;;;;;;;9.05;4.43;;;;;;;;;;7385523;19;20014;-75
2022/01/19 16:03:05;;;;;;;7.47;4.35;;;;;;;;;;7386155;19;20007;-76
2022/01/19 16:05:32;;;;;;;10.45;4.43;;;;;;;;;;7386617;19;20479;-74
2022/01/19 16:07:58;;;;;;;7.55;3.47;;;;;;;;;;7382621;19;20019;-74
2022/01/19 16:10:23;;;;;;;8.85;4.20;;;;;;;;;;7372986;19;20021;-77
2022/01/19 16:12:48;;;;;;;7.53;4.60;;;;;;;;;;7384384;19;20019;-71